createdAt,value
2022-09-18T00:01:37.526Z,98446.59
2022-09-18T00:03:43.339Z,98441.50
2022-09-18T00:05:48.045Z,98447.47
2022-09-18T00:07:55.369Z,98443.03
2022-09-18T00:10:00.052Z,98438.91
2022-09-18T00:12:05.082Z,98437.78
2022-09-18T00:14:14.024Z,98438.81
2022-09-18T00:16:20.788Z,98458.63
2022-09-18T00:18:25.537Z,98453.59
2022-09-18T00:20:30.311Z,98449.94
2022-09-18T00:22:35.875Z,98455.03
2022-09-18T00:24:43.251Z,98455.81
2022-09-18T00:26:48.997Z,98451.50
2022-09-18T00:28:54.391Z,98458.34
2022-09-18T00:30:58.914Z,98452.13
2022-09-18T00:33:04.217Z,98447.88
2022-09-18T00:35:09.354Z,98450.38
2022-09-18T00:37:14.181Z,98456.47
2022-09-18T00:39:19.106Z,98460.81
2022-09-18T00:41:29.092Z,98458.31
2022-09-18T00:43:36.469Z,98458.31
2022-09-18T00:45:41.269Z,98465.00
2022-09-18T00:47:51.199Z,98465.00
2022-09-18T00:50:02.739Z,98473.00
2022-09-18T00:52:08.646Z,98478.28
2022-09-18T00:54:18.663Z,98467.66
2022-09-18T00:56:26.727Z,98485.69
2022-09-18T00:58:31.527Z,98482.19
2022-09-18T01:00:36.576Z,98479.50
2022-09-18T01:02:42.169Z,98481.31
2022-09-18T01:04:46.971Z,98483.84
2022-09-18T01:06:56.713Z,98486.91
2022-09-18T01:09:28.017Z,98489.38
2022-09-18T01:11:44.792Z,98479.91
2022-09-18T01:14:01.608Z,98483.38
2022-09-18T01:16:16.910Z,98495.38
2022-09-18T01:18:29.080Z,98495.22
2022-09-18T01:20:49.390Z,98488.16
2022-09-18T01:23:09.847Z,98493.31
2022-09-18T01:25:21.054Z,98488.88
2022-09-18T01:27:36.194Z,98484.41
2022-09-18T01:29:53.683Z,98485.94
2022-09-18T01:32:04.785Z,98491.09
2022-09-18T01:34:15.987Z,98474.69
2022-09-18T01:36:24.368Z,98481.44
2022-09-18T01:38:36.081Z,98531.13
2022-09-18T01:40:50.062Z,98528.56
2022-09-18T01:43:11.714Z,98523.56
2022-09-18T01:45:27.979Z,98537.34
2022-09-18T01:47:41.067Z,98545.41
2022-09-18T01:49:49.396Z,98536.88
2022-09-18T01:51:59.486Z,98544.75
2022-09-18T01:54:08.455Z,98549.03
2022-09-18T01:56:19.544Z,98548.22
2022-09-18T01:58:27.083Z,98548.22
2022-09-18T02:00:35.300Z,98546.53
2022-09-18T02:02:44.934Z,98552.56
2022-09-18T02:04:55.482Z,98555.25
2022-09-18T02:07:07.921Z,98551.75
2022-09-18T02:09:14.388Z,98557.81
2022-09-18T02:11:22.316Z,98545.69
2022-09-18T02:13:31.762Z,98553.56
2022-09-18T02:15:42.342Z,98541.34
2022-09-18T02:17:56.526Z,98540.22
2022-09-18T02:20:13.960Z,98541.84
2022-09-18T02:22:24.512Z,98549.00
2022-09-18T02:24:35.436Z,98553.28
2022-09-18T02:26:43.538Z,98559.31
2022-09-18T02:28:49.963Z,98568.97
2022-09-18T02:30:58.548Z,98570.72
2022-09-18T02:33:03.446Z,98573.31
2022-09-18T02:35:11.729Z,98572.41
2022-09-18T02:37:30.656Z,98567.84
2022-09-18T02:39:54.683Z,98561.72
2022-09-18T02:42:09.351Z,98562.31
2022-09-18T02:44:21.718Z,98540.38
2022-09-18T02:46:35.640Z,98543.13
2022-09-18T02:49:01.880Z,98546.53
2022-09-18T02:51:15.218Z,98532.69
2022-09-18T02:53:26.351Z,98524.56
2022-09-18T02:55:40.300Z,98527.38
2022-09-18T02:57:49.820Z,98519.34
2022-09-18T02:59:58.501Z,98527.19
2022-09-18T03:02:09.439Z,98522.94
2022-09-18T03:04:22.545Z,98529.63
2022-09-18T03:06:35.481Z,98520.13
2022-09-18T03:08:40.233Z,98507.81
2022-09-18T03:10:47.578Z,98506.38
2022-09-18T03:12:53.227Z,98517.47
2022-09-18T03:14:58.192Z,98510.38
2022-09-18T03:17:03.011Z,98502.63
2022-09-18T03:19:14.353Z,98505.22
2022-09-18T03:21:22.044Z,98498.13
2022-09-18T03:23:28.248Z,98487.72
2022-09-18T03:25:44.485Z,98491.31
2022-09-18T03:27:50.698Z,98495.63
2022-09-18T03:30:03.606Z,98492.13
2022-09-18T03:32:10.829Z,98489.50
2022-09-18T03:34:30.068Z,98492.75
2022-09-18T03:36:34.794Z,98499.81
2022-09-18T03:38:41.085Z,98507.72
2022-09-18T03:40:47.903Z,98499.06
2022-09-18T03:42:54.219Z,98505.22
2022-09-18T03:45:00.270Z,98496.47
2022-09-18T03:47:05.329Z,98504.19
2022-09-18T03:49:10.159Z,98498.97
2022-09-18T03:51:20.106Z,98499.88
2022-09-18T03:53:24.967Z,98494.59
2022-09-18T03:55:38.950Z,98498.34
2022-09-18T03:58:02.130Z,98494.78
2022-09-18T04:00:18.115Z,98503.47
2022-09-18T04:02:27.920Z,98494.72
2022-09-18T04:04:51.435Z,98511.06
2022-09-18T04:07:25.000Z,98499.81
2022-09-18T04:09:52.482Z,98507.00
2022-09-18T04:11:57.252Z,98502.59
2022-09-18T04:14:02.059Z,98505.97
2022-09-18T04:16:07.174Z,98504.47
2022-09-18T04:18:12.189Z,98494.78
2022-09-18T04:20:17.168Z,98493.06
2022-09-18T04:22:24.695Z,98498.81
2022-09-18T04:24:30.696Z,98494.38
2022-09-18T04:26:39.476Z,98490.09
2022-09-18T04:28:44.017Z,98487.00
2022-09-18T04:30:49.799Z,98491.28
2022-09-18T04:32:54.539Z,98493.88
2022-09-18T04:35:02.014Z,98503.53
2022-09-18T04:37:10.380Z,98498.38
2022-09-18T04:39:19.108Z,98492.38
2022-09-18T04:41:23.918Z,98492.91
2022-09-18T04:43:30.888Z,98491.84
2022-09-18T04:45:36.962Z,98484.91
2022-09-18T04:47:42.011Z,98484.94
2022-09-18T04:49:46.964Z,98484.09
2022-09-18T04:51:52.084Z,98486.78
2022-09-18T04:53:56.819Z,98494.34
2022-09-18T04:56:04.685Z,98492.84
2022-09-18T04:58:12.841Z,98493.66
2022-09-18T05:00:19.955Z,98498.97
2022-09-18T05:02:26.109Z,98496.47
2022-09-18T05:04:31.416Z,98492.19
2022-09-18T05:06:44.048Z,98491.97
2022-09-18T05:08:48.846Z,98492.91
2022-09-18T05:10:53.690Z,98497.84
2022-09-18T05:13:01.218Z,98491.56
2022-09-18T05:15:07.601Z,98491.06
2022-09-18T05:17:12.419Z,98497.47
2022-09-18T05:19:20.880Z,98496.63
2022-09-18T05:21:25.950Z,98495.72
2022-09-18T05:23:31.748Z,98493.06
2022-09-18T05:25:36.885Z,98489.56
2022-09-18T05:27:41.737Z,98492.03
2022-09-18T05:29:50.054Z,98488.22
2022-09-18T05:31:59.282Z,98483.97
2022-09-18T05:34:05.271Z,98484.09
2022-09-18T05:36:10.640Z,98482.41
2022-09-18T05:38:15.523Z,98496.91
2022-09-18T05:40:23.857Z,98498.66
2022-09-18T05:42:28.780Z,98509.19
2022-09-18T05:44:35.600Z,98513.69
2022-09-18T05:46:50.118Z,98511.06
2022-09-18T05:48:55.520Z,98511.16
2022-09-18T05:51:00.312Z,98514.00
2022-09-18T05:53:08.418Z,98529.41
2022-09-18T05:55:32.310Z,98529.81
2022-09-18T05:57:37.627Z,98546.75
2022-09-18T05:59:42.442Z,98547.03
2022-09-18T06:01:50.815Z,98553.22
2022-09-18T06:04:21.652Z,98556.97
2022-09-18T06:06:34.155Z,98563.84
2022-09-18T06:08:38.942Z,98571.00
2022-09-18T06:10:44.014Z,98567.41
2022-09-18T06:12:49.029Z,98570.84
2022-09-18T06:14:53.791Z,98583.00
2022-09-18T06:17:01.291Z,98589.13
2022-09-18T06:19:06.384Z,98584.03
2022-09-18T06:21:14.933Z,98595.97
2022-09-18T06:23:20.755Z,98586.31
2022-09-18T06:25:36.492Z,98583.72
2022-09-18T06:27:41.531Z,98594.09
2022-09-18T06:29:46.722Z,98587.97
2022-09-18T06:32:09.069Z,98584.66
2022-09-18T06:34:15.765Z,98589.59
2022-09-18T06:36:22.324Z,98590.28
2022-09-18T06:39:02.575Z,98585.13
2022-09-18T06:41:08.996Z,98590.28
2022-09-18T06:43:25.274Z,98588.47
2022-09-18T06:46:02.603Z,98581.41
2022-09-18T06:48:17.810Z,98569.19
2022-09-18T06:50:23.575Z,98569.91
2022-09-18T06:52:28.350Z,98562.53
2022-09-18T06:54:35.653Z,98580.56
2022-09-18T06:56:41.178Z,98580.56
2022-09-18T06:58:48.434Z,98583.16
2022-09-18T07:00:57.396Z,98589.31
2022-09-18T07:03:07.439Z,98594.41
2022-09-18T07:05:45.543Z,98586.44
2022-09-18T07:08:00.286Z,98586.88
2022-09-18T07:10:09.504Z,98580.69
2022-09-18T07:12:18.981Z,98581.84
2022-09-18T07:14:28.895Z,98576.47
2022-09-18T07:16:40.674Z,98583.19
2022-09-18T07:18:46.773Z,98579.63
2022-09-18T07:20:54.417Z,98580.47
2022-09-18T07:23:09.810Z,98568.25
2022-09-18T07:25:21.153Z,98573.56
2022-09-18T07:27:26.186Z,98571.72
2022-09-18T07:29:32.839Z,98584.56
2022-09-18T07:31:38.649Z,98577.72
2022-09-18T07:33:46.076Z,98595.75
2022-09-18T07:36:02.605Z,98585.53
2022-09-18T07:38:09.867Z,98590.72
2022-09-18T07:40:36.072Z,98600.25
2022-09-18T07:42:44.272Z,98607.88
2022-09-18T07:44:49.412Z,98620.00
2022-09-18T07:46:55.451Z,98616.56
2022-09-18T07:49:01.599Z,98618.97
2022-09-18T07:51:10.563Z,98626.56
2022-09-18T07:53:17.696Z,98611.06
2022-09-18T07:55:27.059Z,98609.59
2022-09-18T07:57:32.599Z,98612.13
2022-09-18T08:00:07.867Z,98615.56
2022-09-18T08:02:20.070Z,98614.00
2022-09-18T08:04:25.135Z,98608.78
2022-09-18T08:06:41.854Z,98614.78
2022-09-18T08:09:00.702Z,98620.75
2022-09-18T08:11:13.784Z,98623.44
2022-09-18T08:13:23.895Z,98628.97
2022-09-18T08:15:47.257Z,98635.84
2022-09-18T08:18:18.278Z,98637.31
2022-09-18T08:20:52.309Z,98631.09
2022-09-18T08:23:10.033Z,98622.75
2022-09-18T08:25:17.756Z,98625.91
2022-09-18T08:27:26.101Z,98624.88
2022-09-18T08:29:30.972Z,98620.47
2022-09-18T08:31:45.134Z,98616.91
2022-09-18T08:33:49.928Z,98626.31
2022-09-18T08:35:55.028Z,98620.25
2022-09-18T08:38:12.110Z,98612.66
2022-09-18T08:40:56.385Z,98628.91
2022-09-18T08:43:11.530Z,98610.34
2022-09-18T08:45:36.705Z,98591.84
2022-09-18T08:47:48.180Z,98601.72
2022-09-18T08:49:58.838Z,98582.25
2022-09-18T08:52:09.350Z,98569.91
2022-09-18T08:54:36.504Z,98566.88
2022-09-18T08:56:50.671Z,98563.31
2022-09-18T08:59:13.547Z,98552.53
2022-09-18T09:01:21.316Z,98547.41
2022-09-18T09:03:53.961Z,98533.19
2022-09-18T09:06:01.906Z,98540.41
2022-09-18T09:08:24.816Z,98546.81
2022-09-18T09:10:43.286Z,98545.66
2022-09-18T09:12:56.005Z,98528.88
2022-09-18T09:15:31.715Z,98534.09
2022-09-18T09:17:43.238Z,98508.06
2022-09-18T09:19:56.049Z,98523.06
2022-09-18T09:22:09.523Z,98515.09
2022-09-18T09:24:26.844Z,98506.34
2022-09-18T09:27:19.496Z,98501.13
2022-09-18T09:29:46.787Z,98502.47
2022-09-18T09:32:25.980Z,98476.19
2022-09-18T09:34:58.321Z,98464.41
2022-09-18T09:37:31.712Z,98485.28
2022-09-18T09:39:43.348Z,98481.03
2022-09-18T09:41:54.093Z,98489.66
2022-09-18T09:44:09.686Z,98485.31
2022-09-18T09:46:21.619Z,98472.06
2022-09-18T09:48:33.079Z,98424.31
2022-09-18T09:50:53.111Z,98457.41
2022-09-18T09:53:03.879Z,98444.91
2022-09-18T09:55:21.445Z,98454.91
2022-09-18T09:57:35.810Z,98441.84
2022-09-18T09:59:52.805Z,98441.06
2022-09-18T10:02:12.749Z,98433.69
2022-09-18T10:04:31.858Z,98445.53
2022-09-18T10:06:45.603Z,98445.31
2022-09-18T10:08:59.673Z,98439.34
2022-09-18T10:11:11.285Z,98432.25
2022-09-18T10:13:21.002Z,98439.81
2022-09-18T10:15:36.749Z,98438.31
2022-09-18T10:17:44.855Z,98431.06
2022-09-18T10:19:51.009Z,98433.78
2022-09-18T10:21:58.083Z,98444.13
2022-09-18T10:24:15.653Z,98455.03
2022-09-18T10:26:26.285Z,98436.00
2022-09-18T10:28:32.159Z,98425.91
2022-09-18T10:30:55.526Z,98417.63
2022-09-18T10:33:00.355Z,98416.72
2022-09-18T10:35:41.739Z,98397.81
2022-09-18T10:37:47.040Z,98416.81
2022-09-18T10:40:03.999Z,98408.22
2022-09-18T10:42:19.107Z,98412.78
2022-09-18T10:44:29.353Z,98414.69
2022-09-18T10:46:52.386Z,98409.59
2022-09-18T10:48:57.475Z,98407.16
2022-09-18T10:51:04.530Z,98405.53
2022-09-18T10:53:30.472Z,98422.00
2022-09-18T10:55:55.769Z,98423.38
2022-09-18T10:58:08.355Z,98432.31
2022-09-18T11:00:37.186Z,98437.81
2022-09-18T11:02:50.752Z,98447.78
2022-09-18T11:04:56.082Z,98441.56
2022-09-18T11:07:08.015Z,98423.56
2022-09-18T11:09:14.276Z,98430.91
2022-09-18T11:11:29.319Z,98435.69
2022-09-18T11:13:46.049Z,98420.69
2022-09-18T11:15:59.213Z,98425.56
2022-09-18T11:18:15.921Z,98411.84
2022-09-18T11:20:26.787Z,98396.13
2022-09-18T11:22:42.828Z,98412.78
2022-09-18T11:25:10.060Z,98397.22
2022-09-18T11:27:23.152Z,98396.34
2022-09-18T11:29:34.409Z,98392.59
2022-09-18T11:31:45.533Z,98393.78
2022-09-18T11:34:05.666Z,98377.84
2022-09-18T11:36:16.458Z,98370.25
2022-09-18T11:38:21.707Z,98361.50
2022-09-18T11:40:31.472Z,98361.19
2022-09-18T11:42:45.073Z,98355.22
2022-09-18T11:44:51.100Z,98350.88
2022-09-18T11:47:14.139Z,98359.34
2022-09-18T11:49:26.745Z,98360.19
2022-09-18T11:51:37.692Z,98355.91
2022-09-18T11:53:47.428Z,98360.34
2022-09-18T11:55:59.594Z,98344.53
2022-09-18T11:58:08.092Z,98323.59
2022-09-18T12:00:19.955Z,98313.75
2022-09-18T12:02:38.429Z,98314.59
2022-09-18T12:04:52.185Z,98305.31
2022-09-18T12:07:04.009Z,98289.44
2022-09-18T12:09:16.418Z,98280.59
2022-09-18T12:11:28.096Z,98272.59
2022-09-18T12:13:45.680Z,98293.34
2022-09-18T12:15:55.922Z,98297.09
2022-09-18T12:18:06.990Z,98289.25
2022-09-18T12:20:19.257Z,98293.34
2022-09-18T12:22:30.328Z,98269.88
2022-09-18T12:24:36.327Z,98242.34
2022-09-18T12:26:48.665Z,98262.75
2022-09-18T12:29:07.954Z,98272.53
2022-09-18T12:31:18.776Z,98256.56
2022-09-18T12:33:34.452Z,98265.59
2022-09-18T12:35:50.886Z,98274.72
2022-09-18T12:38:08.606Z,98284.31
2022-09-18T12:40:27.110Z,98246.22
2022-09-18T12:42:42.728Z,98248.00
2022-09-18T12:45:23.308Z,98239.19
2022-09-18T12:47:51.019Z,98260.53
2022-09-18T12:50:17.126Z,98267.25
2022-09-18T12:52:50.804Z,98268.97
2022-09-18T12:55:38.019Z,98259.97
2022-09-18T12:57:58.982Z,98244.44
2022-09-18T13:00:30.033Z,98237.66
2022-09-18T13:03:04.451Z,98251.50
2022-09-18T13:05:16.685Z,98248.25
2022-09-18T13:07:29.190Z,98247.88
2022-09-18T13:09:44.803Z,98246.44
2022-09-18T13:11:52.143Z,98231.78
2022-09-18T13:14:01.722Z,98223.38
2022-09-18T13:16:11.670Z,98228.44
2022-09-18T13:18:29.150Z,98228.75
2022-09-18T13:20:37.194Z,98224.41
2022-09-18T13:22:50.006Z,98230.09
2022-09-18T13:24:58.792Z,98211.03
2022-09-18T13:27:06.565Z,98204.63
2022-09-18T13:29:41.153Z,98224.69
2022-09-18T13:31:46.073Z,98238.63
2022-09-18T13:33:57.764Z,98263.94
2022-09-18T13:36:02.767Z,98263.59
2022-09-18T13:38:20.416Z,98255.31
2022-09-18T13:40:35.566Z,98244.06
2022-09-18T13:42:42.850Z,98252.34
2022-09-18T13:44:52.985Z,98232.66
2022-09-18T13:47:00.138Z,98213.53
2022-09-18T13:49:17.639Z,98203.88
2022-09-18T13:51:30.662Z,98225.22
2022-09-18T13:53:42.655Z,98211.31
2022-09-18T13:55:56.150Z,98215.75
2022-09-18T13:58:41.007Z,98198.81
2022-09-18T14:00:46.020Z,98198.97
2022-09-18T14:02:52.103Z,98192.38
2022-09-18T14:05:22.428Z,98192.47
2022-09-18T14:07:47.042Z,98186.34
2022-09-18T14:09:59.805Z,98175.22
2022-09-18T14:12:14.870Z,98166.22
2022-09-18T14:14:24.124Z,98155.38
2022-09-18T14:16:40.786Z,98164.66
2022-09-18T14:19:24.446Z,98159.44
2022-09-18T14:21:32.777Z,98172.00
2022-09-18T14:24:13.285Z,98175.28
2022-09-18T14:26:47.882Z,98159.59
2022-09-18T14:28:55.502Z,98189.84
2022-09-18T14:31:15.753Z,98220.59
2022-09-18T14:33:23.903Z,98226.75
2022-09-18T14:35:37.848Z,98255.34
2022-09-18T14:37:42.769Z,98271.53
2022-09-18T14:39:48.038Z,98292.25
2022-09-18T14:41:57.473Z,98285.19
2022-09-18T14:44:07.191Z,98283.38
2022-09-18T14:46:21.189Z,98304.16
2022-09-18T14:48:31.212Z,98316.28
2022-09-18T14:50:39.041Z,98330.69
2022-09-18T14:52:45.829Z,98352.91
2022-09-18T14:54:51.250Z,98346.84
2022-09-18T14:57:01.726Z,98351.94
2022-09-18T14:59:11.148Z,98362.84
2022-09-18T15:01:19.835Z,98347.63
2022-09-18T15:03:32.359Z,98343.38
2022-09-18T15:05:38.000Z,98365.13
2022-09-18T15:07:50.027Z,98347.28
2022-09-18T15:09:57.599Z,98314.00
2022-09-18T15:12:03.651Z,98354.34
2022-09-18T15:14:23.102Z,98371.97
2022-09-18T15:16:30.016Z,98379.09
2022-09-18T15:18:42.967Z,98369.00
2022-09-18T15:20:51.401Z,98399.06
2022-09-18T15:22:56.906Z,98421.59
2022-09-18T15:25:02.151Z,98468.44
2022-09-18T15:27:09.771Z,98516.31
2022-09-18T15:29:23.057Z,98477.06
2022-09-18T15:31:32.835Z,98517.44
2022-09-18T15:33:39.730Z,98549.00
2022-09-18T15:35:45.366Z,98534.53
2022-09-18T15:37:54.493Z,98525.00
2022-09-18T15:40:05.724Z,98528.13
2022-09-18T15:42:26.663Z,98521.94
2022-09-18T15:45:04.066Z,98508.91
2022-09-18T15:47:35.117Z,98514.72
2022-09-18T15:49:39.952Z,98502.94
2022-09-18T15:51:44.696Z,98495.38
2022-09-18T15:54:09.902Z,98494.63
2022-09-18T15:56:22.969Z,98508.53
2022-09-18T15:58:43.545Z,98510.88
2022-09-18T16:00:58.755Z,98499.06
2022-09-18T16:03:09.706Z,98516.47
2022-09-18T16:05:17.679Z,98513.19
2022-09-18T16:07:24.341Z,98521.63
2022-09-18T16:09:43.938Z,98526.53
2022-09-18T16:11:49.422Z,98520.59
2022-09-18T16:13:56.261Z,98531.59
2022-09-18T16:16:17.632Z,98528.94
2022-09-18T16:18:29.208Z,98522.09
2022-09-18T16:20:41.763Z,98532.34
2022-09-18T16:22:46.602Z,98510.97
2022-09-18T16:24:51.672Z,98516.09
2022-09-18T16:26:56.650Z,98515.13
2022-09-18T16:29:03.974Z,98525.13
2022-09-18T16:31:08.816Z,98495.88
2022-09-18T16:33:20.764Z,98518.28
2022-09-18T16:35:28.089Z,98482.53
2022-09-18T16:37:32.853Z,98479.50
2022-09-18T16:39:38.131Z,98483.28
2022-09-18T16:41:42.660Z,98473.13
2022-09-18T16:43:47.376Z,98474.78
2022-09-18T16:45:52.256Z,98479.03
2022-09-18T16:48:00.781Z,98471.94
2022-09-18T16:50:06.272Z,98460.50
2022-09-18T16:52:15.641Z,98462.59
2022-09-18T16:54:20.498Z,98444.19
2022-09-18T16:56:30.523Z,98438.25
2022-09-18T16:58:38.998Z,98438.84
2022-09-18T17:00:43.844Z,98440.66
2022-09-18T17:02:49.164Z,98439.81
2022-09-18T17:04:54.164Z,98422.75
2022-09-18T17:06:58.994Z,98431.16
2022-09-18T17:09:07.710Z,98425.63
2022-09-18T17:11:12.953Z,98415.28
2022-09-18T17:13:17.536Z,98423.16
2022-09-18T17:15:22.428Z,98402.28
2022-09-18T17:17:27.318Z,98400.22
2022-09-18T17:19:32.120Z,98399.94
2022-09-18T17:21:36.855Z,98388.59
2022-09-18T17:23:41.685Z,98379.28
2022-09-18T17:25:49.096Z,98377.88
2022-09-18T17:27:54.342Z,98394.34
2022-09-18T17:29:58.990Z,98382.38
2022-09-18T17:32:06.227Z,98372.94
2022-09-18T17:34:11.126Z,98375.28
2022-09-18T17:36:18.185Z,98369.25
2022-09-18T17:38:22.958Z,98363.09
2022-09-18T17:40:27.810Z,98366.66
2022-09-18T17:42:38.073Z,98359.78
2022-09-18T17:44:43.177Z,98344.84
2022-09-18T17:46:51.618Z,98342.50
2022-09-18T17:48:57.022Z,98349.34
2022-09-18T17:51:02.748Z,98350.06
2022-09-18T17:53:08.950Z,98342.44
2022-09-18T17:55:13.810Z,98338.22
2022-09-18T17:57:18.591Z,98349.22
2022-09-18T17:59:26.879Z,98351.88
2022-09-18T18:01:32.570Z,98342.44
2022-09-18T18:03:37.427Z,98347.66
2022-09-18T18:05:42.799Z,98343.28
2022-09-18T18:07:47.274Z,98347.44
2022-09-18T18:09:52.061Z,98342.59
2022-09-18T18:11:57.248Z,98348.25
2022-09-18T18:14:01.800Z,98341.84
2022-09-18T18:16:11.073Z,98352.25
2022-09-18T18:18:15.882Z,98351.50
2022-09-18T18:20:21.370Z,98333.50
2022-09-18T18:22:26.193Z,98325.38
2022-09-18T18:24:31.134Z,98353.75
2022-09-18T18:26:35.983Z,98355.06
2022-09-18T18:28:42.795Z,98367.25
2022-09-18T18:30:47.743Z,98378.78
2022-09-18T18:32:56.173Z,98384.69
2022-09-18T18:35:00.921Z,98386.59
2022-09-18T18:37:06.065Z,98387.47
2022-09-18T18:39:13.010Z,98393.00
2022-09-18T18:41:19.194Z,98389.63
2022-09-18T18:43:24.561Z,98405.41
2022-09-18T18:45:29.730Z,98397.00
2022-09-18T18:47:36.046Z,98405.53
2022-09-18T18:49:43.405Z,98394.41
2022-09-18T18:51:51.957Z,98398.81
2022-09-18T18:53:57.361Z,98394.56
2022-09-18T18:56:05.923Z,98393.25
2022-09-18T18:58:10.725Z,98400.47
2022-09-18T19:00:16.181Z,98401.34
2022-09-18T19:02:20.976Z,98386.19
2022-09-18T19:04:28.898Z,98388.06
2022-09-18T19:06:36.965Z,98392.31
2022-09-18T19:08:42.127Z,98398.19
2022-09-18T19:10:47.160Z,98392.34
2022-09-18T19:12:57.315Z,98416.69
2022-09-18T19:15:02.032Z,98397.22
2022-09-18T19:17:10.042Z,98412.25
2022-09-18T19:19:15.878Z,98430.47
2022-09-18T19:21:20.729Z,98440.00
2022-09-18T19:23:31.265Z,98420.19
2022-09-18T19:25:37.470Z,98439.41
2022-09-18T19:27:42.335Z,98446.25
2022-09-18T19:29:47.165Z,98448.75
2022-09-18T19:31:53.163Z,98434.16
2022-09-18T19:33:58.506Z,98452.56
2022-09-18T19:36:07.722Z,98478.16
2022-09-18T19:38:15.773Z,98480.88
2022-09-18T19:40:23.196Z,98468.22
2022-09-18T19:42:31.229Z,98469.75
2022-09-18T19:44:38.772Z,98467.75
2022-09-18T19:46:43.763Z,98464.22
2022-09-18T19:48:48.759Z,98454.31
2022-09-18T19:50:54.006Z,98447.44
2022-09-18T19:52:58.783Z,98438.00
2022-09-18T19:55:03.617Z,98423.25
2022-09-18T19:57:11.802Z,98435.41
2022-09-18T19:59:17.079Z,98427.81
2022-09-18T20:01:22.532Z,98430.41
2022-09-18T20:03:27.398Z,98444.00
2022-09-18T20:05:33.445Z,98439.75
2022-09-18T20:07:38.902Z,98439.03
2022-09-18T20:09:43.644Z,98433.94
2022-09-18T20:11:48.571Z,98433.13
2022-09-18T20:13:56.142Z,98443.56
2022-09-18T20:16:05.744Z,98446.28
2022-09-18T20:18:10.733Z,98453.19
2022-09-18T20:20:16.649Z,98474.47
2022-09-18T20:22:21.551Z,98517.00
2022-09-18T20:24:26.370Z,98572.09
2022-09-18T20:26:31.687Z,98595.69
2022-09-18T20:28:37.384Z,98580.00
2022-09-18T20:30:44.819Z,98588.53
2022-09-18T20:32:49.708Z,98582.75
2022-09-18T20:34:54.957Z,98571.56
2022-09-18T20:36:59.423Z,98539.88
2022-09-18T20:39:04.198Z,98532.13
2022-09-18T20:41:13.595Z,98520.03
2022-09-18T20:43:18.329Z,98515.56
2022-09-18T20:45:23.170Z,98488.94
2022-09-18T20:47:32.226Z,98492.38
2022-09-18T20:49:37.909Z,98480.44
2022-09-18T20:51:42.656Z,98491.38
2022-09-18T20:53:47.683Z,98480.25
2022-09-18T20:55:52.478Z,98518.19
2022-09-18T20:58:00.342Z,98515.69
2022-09-18T21:00:09.197Z,98499.06
2022-09-18T21:02:14.093Z,98493.94
2022-09-18T21:04:23.340Z,98485.56
2022-09-18T21:06:31.732Z,98497.00
2022-09-18T21:08:37.862Z,98503.22
2022-09-18T21:10:47.030Z,98492.78
2022-09-18T21:12:51.948Z,98498.25
2022-09-18T21:14:56.979Z,98513.16
2022-09-18T21:17:01.923Z,98566.31
2022-09-18T21:19:06.801Z,98584.75
2022-09-18T21:21:17.965Z,98592.97
2022-09-18T21:23:35.583Z,98596.41
2022-09-18T21:25:40.611Z,98597.00
2022-09-18T21:27:45.400Z,98598.63
2022-09-18T21:29:50.233Z,98600.31
2022-09-18T21:31:56.689Z,98621.75
2022-09-18T21:34:03.919Z,98639.63
2022-09-18T21:36:09.068Z,98627.38
2022-09-18T21:38:17.473Z,98621.34
2022-09-18T21:40:22.348Z,98599.03
2022-09-18T21:42:27.239Z,98598.81
2022-09-18T21:44:38.523Z,98591.97
2022-09-18T21:46:44.824Z,98594.72
2022-09-18T21:48:53.041Z,98609.69
2022-09-18T21:50:57.958Z,98637.50
2022-09-18T21:53:02.717Z,98654.00
2022-09-18T21:55:11.204Z,98661.13
2022-09-18T21:57:16.390Z,98662.13
2022-09-18T21:59:22.307Z,98662.16
2022-09-18T22:01:32.173Z,98654.59
2022-09-18T22:03:37.192Z,98649.53
2022-09-18T22:05:41.979Z,98666.13
2022-09-18T22:07:47.430Z,98664.63
2022-09-18T22:09:53.497Z,98660.34
2022-09-18T22:12:01.847Z,98639.69
2022-09-18T22:14:09.369Z,98631.22
2022-09-18T22:16:16.454Z,98634.66
2022-09-18T22:18:21.277Z,98653.09
2022-09-18T22:20:26.033Z,98651.31
2022-09-18T22:22:30.880Z,98636.69
2022-09-18T22:24:35.777Z,98625.25
2022-09-18T22:26:43.086Z,98613.13
2022-09-18T22:28:53.776Z,98620.03
2022-09-18T22:30:58.623Z,98630.41
2022-09-18T22:33:04.754Z,98630.13
2022-09-18T22:35:11.170Z,98635.16
2022-09-18T22:37:15.961Z,98646.28
2022-09-18T22:39:22.581Z,98661.47
2022-09-18T22:41:27.773Z,98647.97
2022-09-18T22:43:34.024Z,98645.56
2022-09-18T22:45:42.357Z,98644.56
2022-09-18T22:47:47.153Z,98628.22
2022-09-18T22:49:52.108Z,98628.75
2022-09-18T22:51:57.360Z,98620.97
2022-09-18T22:54:02.852Z,98615.19
2022-09-18T22:56:09.578Z,98612.41
2022-09-18T22:58:15.295Z,98616.59
2022-09-18T23:00:20.313Z,98613.09
2022-09-18T23:02:27.648Z,98593.38
2022-09-18T23:04:36.722Z,98574.50
2022-09-18T23:06:42.838Z,98574.47
2022-09-18T23:08:48.967Z,98572.72
2022-09-18T23:10:55.077Z,98566.09
2022-09-18T23:12:59.848Z,98558.31
2022-09-18T23:15:04.614Z,98562.44
2022-09-18T23:17:09.979Z,98557.31
2022-09-18T23:19:19.047Z,98556.47
2022-09-18T23:21:26.955Z,98542.03
2022-09-18T23:23:33.461Z,98549.72
2022-09-18T23:25:38.802Z,98549.81
2022-09-18T23:27:43.325Z,98542.97
2022-09-18T23:29:48.153Z,98542.03
2022-09-18T23:31:57.418Z,98537.63
2022-09-18T23:34:05.044Z,98526.41
2022-09-18T23:36:15.521Z,98504.91
2022-09-18T23:38:20.285Z,98513.69
2022-09-18T23:40:25.200Z,98510.38
2022-09-18T23:42:30.183Z,98500.06
2022-09-18T23:44:35.142Z,98491.72
2022-09-18T23:46:40.424Z,98487.47
2022-09-18T23:48:47.536Z,98495.31
2022-09-18T23:50:53.503Z,98481.72
2022-09-18T23:53:00.846Z,98492.91
2022-09-18T23:55:05.716Z,98480.19
2022-09-18T23:57:10.503Z,98479.47
2022-09-18T23:59:19.570Z,98488.13
